sensor_id;sensor_type;location;lat;lon;timestamp;P1;durP1;ratioP1;P2;durP2;ratioP2
15159;SDS011;7680;48.800;9.680;2023-05-07T00:01:31;4.18;;;3.88;;
15159;SDS011;7680;48.800;9.680;2023-05-07T00:04:05;4.25;;;3.83;;
15159;SDS011;7680;48.800;9.680;2023-05-07T00:06:39;4.78;;;4.47;;
15159;SDS011;7680;48.800;9.680;2023-05-07T00:09:12;5.28;;;4.80;;
15159;SDS011;7680;48.800;9.680;2023-05-07T00:11:45;4.63;;;4.22;;
15159;SDS011;7680;48.800;9.680;2023-05-07T00:14:18;4.90;;;4.50;;
15159;SDS011;7680;48.800;9.680;2023-05-07T00:16:51;4.50;;;4.15;;
15159;SDS011;7680;48.800;9.680;2023-05-07T00:19:26;4.80;;;4.50;;
15159;SDS011;7680;48.800;9.680;2023-05-07T00:21:59;5.30;;;4.78;;
15159;SDS011;7680;48.800;9.680;2023-05-07T00:24:32;5.18;;;4.78;;
15159;SDS011;7680;48.800;9.680;2023-05-07T00:27:05;4.80;;;4.38;;
15159;SDS011;7680;48.800;9.680;2023-05-07T00:29:38;5.13;;;4.72;;
15159;SDS011;7680;48.800;9.680;2023-05-07T00:32:11;5.07;;;4.63;;
15159;SDS011;7680;48.800;9.680;2023-05-07T00:34:45;4.97;;;4.50;;
15159;SDS011;7680;48.800;9.680;2023-05-07T00:37:18;5.15;;;4.75;;
15159;SDS011;7680;48.800;9.680;2023-05-07T00:39:51;7.20;;;4.93;;
15159;SDS011;7680;48.800;9.680;2023-05-07T00:42:24;5.30;;;4.80;;
15159;SDS011;7680;48.800;9.680;2023-05-07T00:44:59;5.38;;;4.90;;
15159;SDS011;7680;48.800;9.680;2023-05-07T00:47:31;5.90;;;5.05;;
15159;SDS011;7680;48.800;9.680;2023-05-07T00:50:07;6.07;;;5.03;;
15159;SDS011;7680;48.800;9.680;2023-05-07T00:52:44;5.07;;;4.68;;
15159;SDS011;7680;48.800;9.680;2023-05-07T00:55:17;5.25;;;4.85;;
15159;SDS011;7680;48.800;9.680;2023-05-07T00:57:51;5.32;;;4.78;;
15159;SDS011;7680;48.800;9.680;2023-05-07T01:00:24;5.10;;;4.68;;
15159;SDS011;7680;48.800;9.680;2023-05-07T01:02:58;6.40;;;4.90;;
15159;SDS011;7680;48.800;9.680;2023-05-07T01:05:33;5.82;;;5.15;;
15159;SDS011;7680;48.800;9.680;2023-05-07T01:08:06;6.32;;;5.70;;
15159;SDS011;7680;48.800;9.680;2023-05-07T01:10:40;5.97;;;5.57;;
15159;SDS011;7680;48.800;9.680;2023-05-07T01:13:14;6.13;;;5.63;;
15159;SDS011;7680;48.800;9.680;2023-05-07T01:15:48;5.78;;;5.07;;
15159;SDS011;7680;48.800;9.680;2023-05-07T01:18:21;5.60;;;5.10;;
15159;SDS011;7680;48.800;9.680;2023-05-07T01:20:55;5.35;;;4.97;;
15159;SDS011;7680;48.800;9.680;2023-05-07T01:23:32;5.47;;;4.97;;
15159;SDS011;7680;48.800;9.680;2023-05-07T01:26:07;5.70;;;5.20;;
15159;SDS011;7680;48.800;9.680;2023-05-07T01:28:40;5.75;;;5.15;;
15159;SDS011;7680;48.800;9.680;2023-05-07T01:31:13;5.40;;;4.93;;
15159;SDS011;7680;48.800;9.680;2023-05-07T01:33:47;6.22;;;5.38;;
15159;SDS011;7680;48.800;9.680;2023-05-07T01:36:22;6.35;;;5.22;;
15159;SDS011;7680;48.800;9.680;2023-05-07T01:38:58;5.47;;;5.07;;
15159;SDS011;7680;48.800;9.680;2023-05-07T01:41:32;4.95;;;4.45;;
15159;SDS011;7680;48.800;9.680;2023-05-07T01:44:05;4.85;;;4.55;;
15159;SDS011;7680;48.800;9.680;2023-05-07T01:46:38;5.47;;;4.97;;
15159;SDS011;7680;48.800;9.680;2023-05-07T01:49:11;5.35;;;4.90;;
15159;SDS011;7680;48.800;9.680;2023-05-07T01:51:44;5.15;;;4.75;;
15159;SDS011;7680;48.800;9.680;2023-05-07T01:54:19;5.78;;;5.30;;
15159;SDS011;7680;48.800;9.680;2023-05-07T01:56:52;5.10;;;4.47;;
15159;SDS011;7680;48.800;9.680;2023-05-07T01:59:25;4.95;;;4.53;;
15159;SDS011;7680;48.800;9.680;2023-05-07T02:01:58;5.72;;;5.13;;
15159;SDS011;7680;48.800;9.680;2023-05-07T02:04:32;5.45;;;4.93;;
15159;SDS011;7680;48.800;9.680;2023-05-07T02:07:05;5.07;;;4.65;;
15159;SDS011;7680;48.800;9.680;2023-05-07T02:09:39;5.80;;;5.40;;
15159;SDS011;7680;48.800;9.680;2023-05-07T02:12:12;5.55;;;5.05;;
15159;SDS011;7680;48.800;9.680;2023-05-07T02:14:45;5.63;;;5.18;;
15159;SDS011;7680;48.800;9.680;2023-05-07T02:17:18;4.57;;;4.25;;
15159;SDS011;7680;48.800;9.680;2023-05-07T02:19:51;5.28;;;4.82;;
15159;SDS011;7680;48.800;9.680;2023-05-07T02:22:24;4.90;;;4.40;;
15159;SDS011;7680;48.800;9.680;2023-05-07T02:24:58;4.80;;;4.32;;
15159;SDS011;7680;48.800;9.680;2023-05-07T02:27:31;5.53;;;5.03;;
15159;SDS011;7680;48.800;9.680;2023-05-07T02:30:05;4.80;;;4.40;;
15159;SDS011;7680;48.800;9.680;2023-05-07T02:32:39;5.22;;;4.82;;
15159;SDS011;7680;48.800;9.680;2023-05-07T02:35:12;4.97;;;4.63;;
15159;SDS011;7680;48.800;9.680;2023-05-07T02:37:45;5.25;;;4.85;;
15159;SDS011;7680;48.800;9.680;2023-05-07T02:40:20;6.38;;;5.78;;
15159;SDS011;7680;48.800;9.680;2023-05-07T02:42:53;5.72;;;5.32;;
15159;SDS011;7680;48.800;9.680;2023-05-07T02:45:26;5.68;;;5.18;;
15159;SDS011;7680;48.800;9.680;2023-05-07T02:47:59;5.95;;;5.45;;
15159;SDS011;7680;48.800;9.680;2023-05-07T02:50:32;5.68;;;5.18;;
15159;SDS011;7680;48.800;9.680;2023-05-07T02:53:05;6.05;;;4.97;;
15159;SDS011;7680;48.800;9.680;2023-05-07T02:55:40;5.70;;;5.30;;
15159;SDS011;7680;48.800;9.680;2023-05-07T02:58:13;5.97;;;4.82;;
15159;SDS011;7680;48.800;9.680;2023-05-07T03:00:46;6.22;;;5.63;;
15159;SDS011;7680;48.800;9.680;2023-05-07T03:03:19;5.82;;;5.03;;
15159;SDS011;7680;48.800;9.680;2023-05-07T03:05:52;4.85;;;4.45;;
15159;SDS011;7680;48.800;9.680;2023-05-07T03:08:25;5.38;;;4.80;;
15159;SDS011;7680;48.800;9.680;2023-05-07T03:10:59;5.28;;;4.88;;
15159;SDS011;7680;48.800;9.680;2023-05-07T03:13:32;5.35;;;4.95;;
15159;SDS011;7680;48.800;9.680;2023-05-07T03:16:06;4.93;;;4.63;;
15159;SDS011;7680;48.800;9.680;2023-05-07T03:18:39;5.20;;;4.80;;
15159;SDS011;7680;48.800;9.680;2023-05-07T03:21:12;5.25;;;4.85;;
15159;SDS011;7680;48.800;9.680;2023-05-07T03:23:45;4.95;;;4.55;;
15159;SDS011;7680;48.800;9.680;2023-05-07T03:26:19;4.72;;;4.32;;
15159;SDS011;7680;48.800;9.680;2023-05-07T03:28:52;4.65;;;4.35;;
15159;SDS011;7680;48.800;9.680;2023-05-07T03:31:25;5.10;;;4.70;;
15159;SDS011;7680;48.800;9.680;2023-05-07T03:33:58;4.65;;;4.28;;
15159;SDS011;7680;48.800;9.680;2023-05-07T03:36:31;5.10;;;4.70;;
15159;SDS011;7680;48.800;9.680;2023-05-07T03:39:04;5.60;;;5.10;;
15159;SDS011;7680;48.800;9.680;2023-05-07T03:41:39;5.45;;;4.95;;
15159;SDS011;7680;48.800;9.680;2023-05-07T03:44:12;5.60;;;5.15;;
15159;SDS011;7680;48.800;9.680;2023-05-07T03:46:45;4.68;;;4.28;;
15159;SDS011;7680;48.800;9.680;2023-05-07T03:49:18;5.38;;;4.97;;
15159;SDS011;7680;48.800;9.680;2023-05-07T03:51:51;5.38;;;4.88;;
15159;SDS011;7680;48.800;9.680;2023-05-07T03:54:24;5.75;;;5.25;;
15159;SDS011;7680;48.800;9.680;2023-05-07T03:56:58;5.70;;;5.20;;
15159;SDS011;7680;48.800;9.680;2023-05-07T03:59:31;6.00;;;5.45;;
15159;SDS011;7680;48.800;9.680;2023-05-07T04:02:04;5.88;;;5.25;;
15159;SDS011;7680;48.800;9.680;2023-05-07T04:04:37;5.57;;;5.13;;
15159;SDS011;7680;48.800;9.680;2023-05-07T04:07:10;5.32;;;4.93;;
15159;SDS011;7680;48.800;9.680;2023-05-07T04:09:43;4.75;;;4.45;;
15159;SDS011;7680;48.800;9.680;2023-05-07T04:12:18;6.78;;;4.70;;
15159;SDS011;7680;48.800;9.680;2023-05-07T04:14:51;5.20;;;4.80;;
15159;SDS011;7680;48.800;9.680;2023-05-07T04:17:23;5.75;;;5.32;;
15159;SDS011;7680;48.800;9.680;2023-05-07T04:19:58;5.55;;;5.13;;
15159;SDS011;7680;48.800;9.680;2023-05-07T04:22:31;5.60;;;5.15;;
15159;SDS011;7680;48.800;9.680;2023-05-07T04:25:04;5.65;;;5.15;;
15159;SDS011;7680;48.800;9.680;2023-05-07T04:27:40;6.35;;;5.78;;
15159;SDS011;7680;48.800;9.680;2023-05-07T04:30:13;5.45;;;5.05;;
15159;SDS011;7680;48.800;9.680;2023-05-07T04:32:46;5.65;;;5.25;;
15159;SDS011;7680;48.800;9.680;2023-05-07T04:35:20;5.70;;;5.25;;
15159;SDS011;7680;48.800;9.680;2023-05-07T04:37:53;6.00;;;5.40;;
15159;SDS011;7680;48.800;9.680;2023-05-07T04:40:26;5.25;;;4.85;;
15159;SDS011;7680;48.800;9.680;2023-05-07T04:43:00;4.93;;;4.53;;
15159;SDS011;7680;48.800;9.680;2023-05-07T04:45:33;4.63;;;4.22;;
15159;SDS011;7680;48.800;9.680;2023-05-07T04:48:06;4.40;;;4.00;;
15159;SDS011;7680;48.800;9.680;2023-05-07T04:50:41;4.65;;;4.35;;
15159;SDS011;7680;48.800;9.680;2023-05-07T04:53:14;5.00;;;4.60;;
15159;SDS011;7680;48.800;9.680;2023-05-07T04:55:47;5.10;;;4.70;;
15159;SDS011;7680;48.800;9.680;2023-05-07T04:58:21;4.32;;;4.03;;
15159;SDS011;7680;48.800;9.680;2023-05-07T05:00:54;5.65;;;4.90;;
15159;SDS011;7680;48.800;9.680;2023-05-07T05:03:27;5.28;;;4.60;;
15159;SDS011;7680;48.800;9.680;2023-05-07T05:06:01;4.53;;;4.22;;
15159;SDS011;7680;48.800;9.680;2023-05-07T05:08:34;4.82;;;4.43;;
15159;SDS011;7680;48.800;9.680;2023-05-07T05:11:07;5.22;;;4.72;;
15159;SDS011;7680;48.800;9.680;2023-05-07T05:13:41;5.20;;;4.80;;
15159;SDS011;7680;48.800;9.680;2023-05-07T05:16:14;5.50;;;5.10;;
15159;SDS011;7680;48.800;9.680;2023-05-07T05:18:47;5.00;;;4.60;;
15159;SDS011;7680;48.800;9.680;2023-05-07T05:21:22;4.68;;;4.28;;
15159;SDS011;7680;48.800;9.680;2023-05-07T05:23:55;4.70;;;4.40;;
15159;SDS011;7680;48.800;9.680;2023-05-07T05:26:28;4.28;;;3.90;;
15159;SDS011;7680;48.800;9.680;2023-05-07T05:29:02;4.30;;;3.90;;
15159;SDS011;7680;48.800;9.680;2023-05-07T05:31:35;4.38;;;3.92;;
15159;SDS011;7680;48.800;9.680;2023-05-07T05:34:08;4.32;;;4.03;;
15159;SDS011;7680;48.800;9.680;2023-05-07T05:36:41;4.25;;;4.05;;
15159;SDS011;7680;48.800;9.680;2023-05-07T05:39:14;4.88;;;4.57;;
15159;SDS011;7680;48.800;9.680;2023-05-07T05:41:47;4.75;;;4.35;;
15159;SDS011;7680;48.800;9.680;2023-05-07T05:44:22;4.45;;;4.05;;
15159;SDS011;7680;48.800;9.680;2023-05-07T05:46:55;4.65;;;4.28;;
15159;SDS011;7680;48.800;9.680;2023-05-07T05:49:30;4.70;;;4.30;;
15159;SDS011;7680;48.800;9.680;2023-05-07T05:52:03;4.40;;;4.10;;
15159;SDS011;7680;48.800;9.680;2023-05-07T05:54:38;5.05;;;4.65;;
15159;SDS011;7680;48.800;9.680;2023-05-07T05:57:11;4.82;;;4.43;;
15159;SDS011;7680;48.800;9.680;2023-05-07T05:59:45;4.38;;;3.97;;
15159;SDS011;7680;48.800;9.680;2023-05-07T06:02:19;4.88;;;4.55;;
15159;SDS011;7680;48.800;9.680;2023-05-07T06:04:52;4.20;;;3.80;;
15159;SDS011;7680;48.800;9.680;2023-05-07T06:07:25;4.38;;;4.00;;
15159;SDS011;7680;48.800;9.680;2023-05-07T06:09:58;4.15;;;3.85;;
15159;SDS011;7680;48.800;9.680;2023-05-07T06:12:31;4.22;;;3.90;;
15159;SDS011;7680;48.800;9.680;2023-05-07T06:15:06;3.90;;;3.60;;
15159;SDS011;7680;48.800;9.680;2023-05-07T06:17:39;4.00;;;3.67;;
15159;SDS011;7680;48.800;9.680;2023-05-07T06:20:12;3.35;;;3.08;;
15159;SDS011;7680;48.800;9.680;2023-05-07T06:22:45;3.40;;;3.17;;
15159;SDS011;7680;48.800;9.680;2023-05-07T06:25:18;3.60;;;3.40;;
15159;SDS011;7680;48.800;9.680;2023-05-07T06:27:51;3.15;;;2.95;;
15159;SDS011;7680;48.800;9.680;2023-05-07T06:30:26;4.07;;;3.10;;
15159;SDS011;7680;48.800;9.680;2023-05-07T06:32:59;3.28;;;2.95;;
15159;SDS011;7680;48.800;9.680;2023-05-07T06:35:32;4.30;;;3.30;;
15159;SDS011;7680;48.800;9.680;2023-05-07T06:38:05;3.40;;;2.95;;
15159;SDS011;7680;48.800;9.680;2023-05-07T06:40:38;3.08;;;2.80;;
15159;SDS011;7680;48.800;9.680;2023-05-07T06:43:11;4.30;;;2.97;;
15159;SDS011;7680;48.800;9.680;2023-05-07T06:45:45;3.50;;;3.20;;
15159;SDS011;7680;48.800;9.680;2023-05-07T06:48:18;4.00;;;3.22;;
15159;SDS011;7680;48.800;9.680;2023-05-07T06:50:51;3.35;;;3.05;;
15159;SDS011;7680;48.800;9.680;2023-05-07T06:53:26;3.38;;;3.10;;
15159;SDS011;7680;48.800;9.680;2023-05-07T06:56:00;3.33;;;3.03;;
15159;SDS011;7680;48.800;9.680;2023-05-07T06:58:33;2.78;;;2.58;;
15159;SDS011;7680;48.800;9.680;2023-05-07T07:01:07;3.50;;;3.20;;
15159;SDS011;7680;48.800;9.680;2023-05-07T07:03:40;3.03;;;2.83;;
15159;SDS011;7680;48.800;9.680;2023-05-07T07:06:13;2.92;;;2.72;;
15159;SDS011;7680;48.800;9.680;2023-05-07T07:08:46;2.78;;;2.58;;
15159;SDS011;7680;48.800;9.680;2023-05-07T07:11:19;2.70;;;2.50;;
15159;SDS011;7680;48.800;9.680;2023-05-07T07:13:52;3.78;;;2.80;;
15159;SDS011;7680;48.800;9.680;2023-05-07T07:16:27;3.00;;;2.80;;
15159;SDS011;7680;48.800;9.680;2023-05-07T07:19:00;2.72;;;2.53;;
15159;SDS011;7680;48.800;9.680;2023-05-07T07:21:33;2.47;;;2.35;;
15159;SDS011;7680;48.800;9.680;2023-05-07T07:24:06;2.63;;;2.45;;
15159;SDS011;7680;48.800;9.680;2023-05-07T07:26:39;3.22;;;3.03;;
15159;SDS011;7680;48.800;9.680;2023-05-07T07:29:13;2.70;;;2.50;;
15159;SDS011;7680;48.800;9.680;2023-05-07T07:31:48;3.10;;;2.67;;
15159;SDS011;7680;48.800;9.680;2023-05-07T07:34:21;2.97;;;2.60;;
15159;SDS011;7680;48.800;9.680;2023-05-07T07:36:54;3.42;;;2.67;;
15159;SDS011;7680;48.800;9.680;2023-05-07T07:39:28;2.63;;;2.42;;
15159;SDS011;7680;48.800;9.680;2023-05-07T07:42:01;2.50;;;2.30;;
15159;SDS011;7680;48.800;9.680;2023-05-07T07:44:34;3.05;;;2.40;;
15159;SDS011;7680;48.800;9.680;2023-05-07T07:47:08;2.70;;;2.50;;
15159;SDS011;7680;48.800;9.680;2023-05-07T07:49:41;2.30;;;2.10;;
15159;SDS011;7680;48.800;9.680;2023-05-07T07:52:14;2.47;;;2.28;;
15159;SDS011;7680;48.800;9.680;2023-05-07T07:54:47;2.58;;;2.13;;
15159;SDS011;7680;48.800;9.680;2023-05-07T07:57:20;2.70;;;1.70;;
15159;SDS011;7680;48.800;9.680;2023-05-07T07:59:53;2.83;;;2.10;;
15159;SDS011;7680;48.800;9.680;2023-05-07T08:02:27;2.78;;;2.20;;
15159;SDS011;7680;48.800;9.680;2023-05-07T08:05:01;2.78;;;2.28;;
15159;SDS011;7680;48.800;9.680;2023-05-07T08:07:35;2.22;;;2.00;;
15159;SDS011;7680;48.800;9.680;2023-05-07T08:10:08;2.67;;;2.33;;
15159;SDS011;7680;48.800;9.680;2023-05-07T08:12:42;3.10;;;1.90;;
15159;SDS011;7680;48.800;9.680;2023-05-07T08:15:15;2.15;;;1.95;;
15159;SDS011;7680;48.800;9.680;2023-05-07T08:17:50;2.03;;;1.92;;
15159;SDS011;7680;48.800;9.680;2023-05-07T08:20:23;2.33;;;2.13;;
15159;SDS011;7680;48.800;9.680;2023-05-07T08:22:56;2.33;;;2.13;;
15159;SDS011;7680;48.800;9.680;2023-05-07T08:25:29;2.42;;;2.22;;
15159;SDS011;7680;48.800;9.680;2023-05-07T08:28:02;2.80;;;2.60;;
15159;SDS011;7680;48.800;9.680;2023-05-07T08:30:38;2.35;;;2.15;;
15159;SDS011;7680;48.800;9.680;2023-05-07T08:33:12;2.45;;;2.22;;
15159;SDS011;7680;48.800;9.680;2023-05-07T08:35:45;2.33;;;2.13;;
15159;SDS011;7680;48.800;9.680;2023-05-07T08:38:18;2.30;;;2.10;;
15159;SDS011;7680;48.800;9.680;2023-05-07T08:40:52;2.58;;;2.20;;
15159;SDS011;7680;48.800;9.680;2023-05-07T08:43:26;2.30;;;2.20;;
15159;SDS011;7680;48.800;9.680;2023-05-07T08:46:00;2.60;;;2.25;;
15159;SDS011;7680;48.800;9.680;2023-05-07T08:48:35;2.38;;;2.17;;
15159;SDS011;7680;48.800;9.680;2023-05-07T08:51:12;2.15;;;2.03;;
15159;SDS011;7680;48.800;9.680;2023-05-07T08:53:46;2.70;;;2.08;;
15159;SDS011;7680;48.800;9.680;2023-05-07T08:56:21;2.00;;;1.90;;
15159;SDS011;7680;48.800;9.680;2023-05-07T08:58:54;4.05;;;2.25;;
15159;SDS011;7680;48.800;9.680;2023-05-07T09:01:27;2.38;;;2.00;;
15159;SDS011;7680;48.800;9.680;2023-05-07T09:04:02;1.98;;;1.75;;
15159;SDS011;7680;48.800;9.680;2023-05-07T09:06:36;1.63;;;1.50;;
15159;SDS011;7680;48.800;9.680;2023-05-07T09:09:14;1.83;;;1.73;;
15159;SDS011;7680;48.800;9.680;2023-05-07T09:11:54;2.05;;;1.67;;
15159;SDS011;7680;48.800;9.680;2023-05-07T09:14:30;2.25;;;1.80;;
15159;SDS011;7680;48.800;9.680;2023-05-07T09:17:03;2.35;;;1.90;;
15159;SDS011;7680;48.800;9.680;2023-05-07T09:19:38;2.17;;;1.98;;
15159;SDS011;7680;48.800;9.680;2023-05-07T09:22:11;2.25;;;1.95;;
15159;SDS011;7680;48.800;9.680;2023-05-07T09:24:47;1.90;;;1.80;;
15159;SDS011;7680;48.800;9.680;2023-05-07T09:27:21;2.60;;;2.40;;
15159;SDS011;7680;48.800;9.680;2023-05-07T09:29:54;2.70;;;1.95;;
15159;SDS011;7680;48.800;9.680;2023-05-07T09:32:27;2.20;;;2.00;;
15159;SDS011;7680;48.800;9.680;2023-05-07T09:35:03;2.53;;;1.80;;
15159;SDS011;7680;48.800;9.680;2023-05-07T09:37:37;2.50;;;1.95;;
15159;SDS011;7680;48.800;9.680;2023-05-07T09:40:19;2.33;;;1.95;;
15159;SDS011;7680;48.800;9.680;2023-05-07T09:42:54;2.67;;;1.98;;
15159;SDS011;7680;48.800;9.680;2023-05-07T09:45:27;2.55;;;2.03;;
15159;SDS011;7680;48.800;9.680;2023-05-07T09:48:01;2.35;;;1.98;;
15159;SDS011;7680;48.800;9.680;2023-05-07T09:50:40;3.17;;;2.10;;
15159;SDS011;7680;48.800;9.680;2023-05-07T09:53:21;2.25;;;2.05;;
15159;SDS011;7680;48.800;9.680;2023-05-07T09:55:55;2.08;;;1.92;;
15159;SDS011;7680;48.800;9.680;2023-05-07T09:58:29;2.45;;;2.00;;
15159;SDS011;7680;48.800;9.680;2023-05-07T10:01:04;3.20;;;2.20;;
15159;SDS011;7680;48.800;9.680;2023-05-07T10:03:38;2.13;;;2.00;;
15159;SDS011;7680;48.800;9.680;2023-05-07T10:06:15;2.20;;;2.03;;
15159;SDS011;7680;48.800;9.680;2023-05-07T10:08:48;2.72;;;2.10;;
15159;SDS011;7680;48.800;9.680;2023-05-07T10:11:23;2.10;;;2.00;;
15159;SDS011;7680;48.800;9.680;2023-05-07T10:13:56;2.00;;;1.90;;
15159;SDS011;7680;48.800;9.680;2023-05-07T10:16:29;1.92;;;1.80;;
15159;SDS011;7680;48.800;9.680;2023-05-07T10:19:08;2.30;;;2.10;;
15159;SDS011;7680;48.800;9.680;2023-05-07T10:21:44;3.42;;;2.28;;
15159;SDS011;7680;48.800;9.680;2023-05-07T10:24:25;3.67;;;2.28;;
15159;SDS011;7680;48.800;9.680;2023-05-07T10:26:59;2.22;;;2.03;;
15159;SDS011;7680;48.800;9.680;2023-05-07T10:29:37;2.22;;;2.13;;
15159;SDS011;7680;48.800;9.680;2023-05-07T10:32:27;2.10;;;1.90;;
15159;SDS011;7680;48.800;9.680;2023-05-07T10:35:10;2.75;;;2.20;;
15159;SDS011;7680;48.800;9.680;2023-05-07T10:37:52;2.47;;;2.28;;
15159;SDS011;7680;48.800;9.680;2023-05-07T10:40:26;2.38;;;2.17;;
15159;SDS011;7680;48.800;9.680;2023-05-07T10:42:59;2.20;;;2.10;;
15159;SDS011;7680;48.800;9.680;2023-05-07T10:45:33;2.38;;;2.13;;
15159;SDS011;7680;48.800;9.680;2023-05-07T10:48:07;2.55;;;2.13;;
15159;SDS011;7680;48.800;9.680;2023-05-07T10:56:57;2.40;;;2.20;;
15159;SDS011;7680;48.800;9.680;2023-05-07T11:00:40;2.40;;;2.20;;
15159;SDS011;7680;48.800;9.680;2023-05-07T11:03:13;3.20;;;2.22;;
15159;SDS011;7680;48.800;9.680;2023-05-07T11:05:47;2.03;;;1.92;;
15159;SDS011;7680;48.800;9.680;2023-05-07T11:08:20;2.50;;;2.30;;
15159;SDS011;7680;48.800;9.680;2023-05-07T11:10:55;2.58;;;2.40;;
15159;SDS011;7680;48.800;9.680;2023-05-07T11:13:42;2.40;;;2.20;;
15159;SDS011;7680;48.800;9.680;2023-05-07T11:16:17;2.45;;;2.30;;
15159;SDS011;7680;48.800;9.680;2023-05-07T11:18:52;2.60;;;2.03;;
15159;SDS011;7680;48.800;9.680;2023-05-07T11:21:32;2.40;;;2.20;;
15159;SDS011;7680;48.800;9.680;2023-05-07T11:24:07;2.60;;;2.10;;
15159;SDS011;7680;48.800;9.680;2023-05-07T11:26:44;2.33;;;2.13;;
15159;SDS011;7680;48.800;9.680;2023-05-07T11:29:19;2.38;;;2.25;;
15159;SDS011;7680;48.800;9.680;2023-05-07T11:31:54;2.75;;;2.40;;
15159;SDS011;7680;48.800;9.680;2023-05-07T11:34:28;2.50;;;2.30;;
15159;SDS011;7680;48.800;9.680;2023-05-07T11:37:02;2.63;;;2.38;;
15159;SDS011;7680;48.800;9.680;2023-05-07T11:39:36;2.22;;;2.03;;
15159;SDS011;7680;48.800;9.680;2023-05-07T11:45:03;2.20;;;2.10;;
15159;SDS011;7680;48.800;9.680;2023-05-07T11:47:41;2.53;;;2.15;;
15159;SDS011;7680;48.800;9.680;2023-05-07T11:50:14;2.53;;;2.33;;
15159;SDS011;7680;48.800;9.680;2023-05-07T11:52:50;2.28;;;2.17;;
15159;SDS011;7680;48.800;9.680;2023-05-07T11:55:24;2.42;;;2.22;;
15159;SDS011;7680;48.800;9.680;2023-05-07T11:57:58;2.70;;;2.50;;
15159;SDS011;7680;48.800;9.680;2023-05-07T12:00:31;2.70;;;2.15;;
15159;SDS011;7680;48.800;9.680;2023-05-07T12:03:04;3.25;;;2.40;;
15159;SDS011;7680;48.800;9.680;2023-05-07T12:05:38;2.30;;;2.08;;
15159;SDS011;7680;48.800;9.680;2023-05-07T12:08:13;2.75;;;2.08;;
15159;SDS011;7680;48.800;9.680;2023-05-07T12:10:48;3.20;;;2.33;;
15159;SDS011;7680;48.800;9.680;2023-05-07T12:13:25;2.40;;;2.20;;
15159;SDS011;7680;48.800;9.680;2023-05-07T12:15:58;2.65;;;2.45;;
15159;SDS011;7680;48.800;9.680;2023-05-07T12:18:32;2.13;;;1.92;;
15159;SDS011;7680;48.800;9.680;2023-05-07T12:21:07;2.35;;;2.17;;
15159;SDS011;7680;48.800;9.680;2023-05-07T12:23:41;3.35;;;2.10;;
15159;SDS011;7680;48.800;9.680;2023-05-07T12:26:14;3.25;;;2.25;;
15159;SDS011;7680;48.800;9.680;2023-05-07T12:28:48;3.83;;;2.47;;
15159;SDS011;7680;48.800;9.680;2023-05-07T12:31:21;2.53;;;2.33;;
15159;SDS011;7680;48.800;9.680;2023-05-07T12:33:54;2.80;;;2.20;;
15159;SDS011;7680;48.800;9.680;2023-05-07T12:36:35;2.08;;;1.98;;
15159;SDS011;7680;48.800;9.680;2023-05-07T12:39:10;2.40;;;2.20;;
15159;SDS011;7680;48.800;9.680;2023-05-07T12:41:52;2.80;;;2.40;;
15159;SDS011;7680;48.800;9.680;2023-05-07T12:44:30;2.22;;;1.95;;
15159;SDS011;7680;48.800;9.680;2023-05-07T12:47:04;2.60;;;2.40;;
15159;SDS011;7680;48.800;9.680;2023-05-07T12:49:37;2.42;;;2.10;;
15159;SDS011;7680;48.800;9.680;2023-05-07T12:52:11;2.53;;;2.33;;
15159;SDS011;7680;48.800;9.680;2023-05-07T12:54:45;2.60;;;2.15;;
15159;SDS011;7680;48.800;9.680;2023-05-07T12:57:18;2.28;;;2.10;;
15159;SDS011;7680;48.800;9.680;2023-05-07T12:59:57;2.35;;;2.25;;
15159;SDS011;7680;48.800;9.680;2023-05-07T13:02:32;2.42;;;2.30;;
15159;SDS011;7680;48.800;9.680;2023-05-07T13:05:06;2.58;;;2.38;;
15159;SDS011;7680;48.800;9.680;2023-05-07T13:07:40;2.03;;;1.92;;
15159;SDS011;7680;48.800;9.680;2023-05-07T13:10:25;2.67;;;2.42;;
15159;SDS011;7680;48.800;9.680;2023-05-07T13:12:59;2.33;;;2.15;;
15159;SDS011;7680;48.800;9.680;2023-05-07T13:15:34;2.30;;;2.20;;
15159;SDS011;7680;48.800;9.680;2023-05-07T13:18:07;2.13;;;2.00;;
15159;SDS011;7680;48.800;9.680;2023-05-07T13:20:42;2.30;;;2.10;;
15159;SDS011;7680;48.800;9.680;2023-05-07T13:23:15;2.63;;;2.30;;
15159;SDS011;7680;48.800;9.680;2023-05-07T13:25:48;2.58;;;2.30;;
15159;SDS011;7680;48.800;9.680;2023-05-07T13:28:24;2.35;;;2.25;;
15159;SDS011;7680;48.800;9.680;2023-05-07T13:30:58;2.50;;;2.30;;
15159;SDS011;7680;48.800;9.680;2023-05-07T13:33:31;2.42;;;2.30;;
15159;SDS011;7680;48.800;9.680;2023-05-07T13:36:04;2.47;;;2.28;;
15159;SDS011;7680;48.800;9.680;2023-05-07T13:38:38;2.70;;;2.50;;
15159;SDS011;7680;48.800;9.680;2023-05-07T13:41:11;2.67;;;2.47;;
15159;SDS011;7680;48.800;9.680;2023-05-07T13:43:45;2.83;;;2.30;;
15159;SDS011;7680;48.800;9.680;2023-05-07T13:46:20;2.38;;;2.20;;
15159;SDS011;7680;48.800;9.680;2023-05-07T13:48:53;2.50;;;2.30;;
15159;SDS011;7680;48.800;9.680;2023-05-07T13:51:26;2.55;;;2.35;;
15159;SDS011;7680;48.800;9.680;2023-05-07T13:53:59;2.42;;;2.22;;
15159;SDS011;7680;48.800;9.680;2023-05-07T13:56:32;2.40;;;2.20;;
15159;SDS011;7680;48.800;9.680;2023-05-07T13:59:06;2.97;;;2.65;;
15159;SDS011;7680;48.800;9.680;2023-05-07T14:01:40;2.75;;;2.50;;
15159;SDS011;7680;48.800;9.680;2023-05-07T14:04:14;2.88;;;2.60;;
15159;SDS011;7680;48.800;9.680;2023-05-07T14:06:47;2.75;;;2.60;;
15159;SDS011;7680;48.800;9.680;2023-05-07T14:09:20;3.40;;;2.40;;
15159;SDS011;7680;48.800;9.680;2023-05-07T14:11:53;2.65;;;2.45;;
15159;SDS011;7680;48.800;9.680;2023-05-07T14:14:26;3.53;;;2.50;;
15159;SDS011;7680;48.800;9.680;2023-05-07T14:17:00;2.85;;;2.40;;
15159;SDS011;7680;48.800;9.680;2023-05-07T14:19:33;2.45;;;2.20;;
15159;SDS011;7680;48.800;9.680;2023-05-07T14:22:06;3.03;;;2.10;;
15159;SDS011;7680;48.800;9.680;2023-05-07T14:24:39;2.63;;;2.40;;
15159;SDS011;7680;48.800;9.680;2023-05-07T14:27:12;2.38;;;2.25;;
15159;SDS011;7680;48.800;9.680;2023-05-07T14:29:46;2.40;;;2.20;;
15159;SDS011;7680;48.800;9.680;2023-05-07T14:32:23;2.75;;;2.47;;
15159;SDS011;7680;48.800;9.680;2023-05-07T14:34:56;2.10;;;2.00;;
15159;SDS011;7680;48.800;9.680;2023-05-07T14:37:29;2.47;;;2.20;;
15159;SDS011;7680;48.800;9.680;2023-05-07T14:40:02;2.10;;;2.00;;
15159;SDS011;7680;48.800;9.680;2023-05-07T14:42:36;2.20;;;2.00;;
15159;SDS011;7680;48.800;9.680;2023-05-07T14:45:09;2.20;;;2.00;;
15159;SDS011;7680;48.800;9.680;2023-05-07T14:47:46;2.35;;;2.15;;
15159;SDS011;7680;48.800;9.680;2023-05-07T14:50:19;2.92;;;2.05;;
15159;SDS011;7680;48.800;9.680;2023-05-07T14:52:52;3.50;;;2.00;;
15159;SDS011;7680;48.800;9.680;2023-05-07T14:55:26;3.58;;;2.38;;
15159;SDS011;7680;48.800;9.680;2023-05-07T14:57:59;2.75;;;2.55;;
15159;SDS011;7680;48.800;9.680;2023-05-07T15:00:32;3.90;;;2.65;;
15159;SDS011;7680;48.800;9.680;2023-05-07T15:03:08;2.95;;;2.28;;
15159;SDS011;7680;48.800;9.680;2023-05-07T15:05:43;2.22;;;2.08;;
15159;SDS011;7680;48.800;9.680;2023-05-07T15:08:16;2.33;;;2.13;;
15159;SDS011;7680;48.800;9.680;2023-05-07T15:10:49;4.22;;;2.20;;
15159;SDS011;7680;48.800;9.680;2023-05-07T15:13:22;3.33;;;2.20;;
15159;SDS011;7680;48.800;9.680;2023-05-07T15:15:55;2.50;;;2.30;;
15159;SDS011;7680;48.800;9.680;2023-05-07T15:18:29;3.00;;;2.10;;
15159;SDS011;7680;48.800;9.680;2023-05-07T15:21:02;2.47;;;2.28;;
15159;SDS011;7680;48.800;9.680;2023-05-07T15:23:35;2.70;;;2.50;;
15159;SDS011;7680;48.800;9.680;2023-05-07T15:26:08;3.40;;;3.10;;
15159;SDS011;7680;48.800;9.680;2023-05-07T15:28:41;4.40;;;4.00;;
15159;SDS011;7680;48.800;9.680;2023-05-07T15:31:15;4.15;;;3.50;;
15159;SDS011;7680;48.800;9.680;2023-05-07T15:33:49;5.55;;;3.53;;
15159;SDS011;7680;48.800;9.680;2023-05-07T15:36:23;3.80;;;3.40;;
15159;SDS011;7680;48.800;9.680;2023-05-07T15:38:56;3.63;;;3.30;;
15159;SDS011;7680;48.800;9.680;2023-05-07T15:41:29;4.90;;;4.40;;
15159;SDS011;7680;48.800;9.680;2023-05-07T15:44:03;4.47;;;3.72;;
15159;SDS011;7680;48.800;9.680;2023-05-07T15:46:36;3.60;;;3.30;;
15159;SDS011;7680;48.800;9.680;2023-05-07T15:49:10;2.70;;;2.47;;
15159;SDS011;7680;48.800;9.680;2023-05-07T15:51:43;4.57;;;3.08;;